createdAt,value
2019-04-10T00:01:19.441Z,6.70
2019-04-10T00:03:52.553Z,6.80
2019-04-10T00:06:24.126Z,6.80
2019-04-10T00:08:56.771Z,6.80
2019-04-10T00:11:29.025Z,6.80
2019-04-10T00:14:01.220Z,6.70
2019-04-10T00:16:33.115Z,6.60
2019-04-10T00:19:04.535Z,6.70
2019-04-10T00:21:37.639Z,6.80
2019-04-10T00:24:10.036Z,6.90
2019-04-10T00:26:41.666Z,6.90
2019-04-10T00:29:14.102Z,6.90
2019-04-10T00:31:45.292Z,7.00
2019-04-10T00:34:17.776Z,7.00
2019-04-10T00:36:49.138Z,7.00
2019-04-10T00:39:22.251Z,7.10
2019-04-10T00:41:54.679Z,6.90
2019-04-10T00:44:25.884Z,6.70
2019-04-10T00:46:57.115Z,6.70
2019-04-10T00:49:29.685Z,6.70
2019-04-10T00:52:01.798Z,6.60
2019-04-10T00:54:34.898Z,6.60
2019-04-10T00:57:07.308Z,6.70
2019-04-10T00:59:38.789Z,6.70
2019-04-10T01:02:10.154Z,6.80
2019-04-10T01:04:42.755Z,6.70
2019-04-10T01:07:14.782Z,6.70
2019-04-10T01:09:46.323Z,6.60
2019-04-10T01:12:18.061Z,6.60
2019-04-10T01:14:49.798Z,6.50
2019-04-10T01:17:22.251Z,6.50
2019-04-10T01:19:56.431Z,6.40
2019-04-10T01:22:29.200Z,6.40
2019-04-10T01:25:00.306Z,6.40
2019-04-10T01:27:31.982Z,6.50
2019-04-10T01:30:04.370Z,6.40
2019-04-10T01:32:36.368Z,6.30
2019-04-10T01:35:09.882Z,6.20
2019-04-10T01:37:50.944Z,6.20
2019-04-10T01:40:15.006Z,6.30
2019-04-10T01:42:59.979Z,6.10
2019-04-10T01:45:20.382Z,6.20
2019-04-10T01:47:53.199Z,6.20
2019-04-10T01:50:24.696Z,6.10
2019-04-10T01:52:55.704Z,6.30
2019-04-10T01:55:31.220Z,6.10
2019-04-10T01:58:03.041Z,6.30
2019-04-10T02:00:35.868Z,6.20
2019-04-10T02:03:08.425Z,6.20
2019-04-10T02:05:40.808Z,6.30
2019-04-10T02:08:15.017Z,6.50
2019-04-10T02:10:46.148Z,6.40
2019-04-10T02:13:17.222Z,6.40
2019-04-10T02:15:48.992Z,6.30
2019-04-10T02:18:21.511Z,6.20
2019-04-10T02:20:53.637Z,6.30
2019-04-10T02:23:26.044Z,6.30
2019-04-10T02:25:58.665Z,6.40
2019-04-10T02:28:31.182Z,6.20
2019-04-10T02:31:04.714Z,6.10
2019-04-10T02:33:38.448Z,6.00
2019-04-10T02:36:10.838Z,6.00
2019-04-10T02:38:57.283Z,6.00
2019-04-10T02:41:15.597Z,6.10
2019-04-10T02:43:47.493Z,6.00
2019-04-10T02:46:19.684Z,6.10
2019-04-10T02:48:51.953Z,6.00
2019-04-10T02:51:25.549Z,5.90
2019-04-10T02:53:57.992Z,5.80
2019-04-10T02:56:30.823Z,5.80
2019-04-10T02:59:03.069Z,5.70
2019-04-10T03:01:35.577Z,5.70
2019-04-10T03:04:07.876Z,5.70
2019-04-10T03:06:40.472Z,5.70
2019-04-10T03:09:28.889Z,5.70
2019-04-10T03:11:45.725Z,5.80
2019-04-10T03:14:18.965Z,5.70
2019-04-10T03:16:51.481Z,5.70
2019-04-10T03:19:25.533Z,5.60
2019-04-10T03:21:57.758Z,5.60
2019-04-10T03:24:32.271Z,5.60
2019-04-10T03:27:03.809Z,5.60
2019-04-10T03:29:35.900Z,5.40
2019-04-10T03:32:28.451Z,5.50
2019-04-10T03:35:02.859Z,5.60
2019-04-10T03:37:34.745Z,5.70
2019-04-10T03:40:07.164Z,5.70
2019-04-10T03:42:39.183Z,5.50
2019-04-10T03:45:11.581Z,5.40
2019-04-10T03:47:43.934Z,5.40
2019-04-10T03:50:16.282Z,5.70
2019-04-10T03:52:49.621Z,5.80
2019-04-10T03:55:21.048Z,5.80
2019-04-10T03:57:53.347Z,5.80
2019-04-10T04:00:25.877Z,6.00
2019-04-10T04:02:57.264Z,6.10
2019-04-10T04:05:30.774Z,5.90
2019-04-10T04:08:01.681Z,5.80
2019-04-10T04:10:33.115Z,5.80
2019-04-10T04:13:06.497Z,5.80
2019-04-10T04:15:38.155Z,5.70
2019-04-10T04:18:09.493Z,5.60
2019-04-10T04:20:41.273Z,5.70
2019-04-10T04:23:12.193Z,5.70
2019-04-10T04:25:43.802Z,5.80
2019-04-10T04:28:15.409Z,5.70
2019-04-10T04:30:46.748Z,5.60
2019-04-10T04:33:19.056Z,5.60
2019-04-10T04:35:51.166Z,5.60
2019-04-10T04:38:24.187Z,5.60
2019-04-10T04:40:58.328Z,5.70
2019-04-10T04:43:30.607Z,5.60
2019-04-10T04:46:03.315Z,5.60
2019-04-10T04:48:35.384Z,5.50
2019-04-10T04:51:06.731Z,5.50
2019-04-10T04:53:38.446Z,5.50
2019-04-10T04:56:09.700Z,5.60
2019-04-10T04:58:41.433Z,5.50
2019-04-10T05:01:12.661Z,5.40
2019-04-10T05:03:44.339Z,5.50
2019-04-10T05:06:16.041Z,5.50
2019-04-10T05:08:48.565Z,5.40
2019-04-10T05:11:20.498Z,5.50
2019-04-10T05:13:51.822Z,5.40
2019-04-10T05:16:24.873Z,5.40
2019-04-10T05:18:56.727Z,5.40
2019-04-10T05:21:28.097Z,5.60
2019-04-10T05:23:59.670Z,5.60
2019-04-10T05:26:30.758Z,5.50
2019-04-10T05:29:02.658Z,5.50
2019-04-10T05:31:34.528Z,5.50
2019-04-10T05:34:05.541Z,5.60
2019-04-10T05:36:37.848Z,5.80
2019-04-10T05:39:10.480Z,5.80
2019-04-10T05:41:41.938Z,5.70
2019-04-10T05:44:13.675Z,5.80
2019-04-10T05:46:45.049Z,5.80
2019-04-10T05:49:17.797Z,5.60
2019-04-10T05:51:50.105Z,5.60
2019-04-10T05:54:22.577Z,5.60
2019-04-10T05:56:54.675Z,5.80
2019-04-10T05:59:26.005Z,5.80
2019-04-10T06:01:57.643Z,5.80
2019-04-10T06:04:29.452Z,5.70
2019-04-10T06:07:01.453Z,5.60
2019-04-10T06:09:33.810Z,5.80
2019-04-10T06:12:05.855Z,5.80
2019-04-10T06:14:38.350Z,5.90
2019-04-10T06:17:10.048Z,6.00
2019-04-10T06:19:42.662Z,6.10
2019-04-10T06:22:15.213Z,6.10
2019-04-10T06:24:46.886Z,6.10
2019-04-10T06:27:19.092Z,6.20
2019-04-10T06:29:50.968Z,6.30
2019-04-10T06:32:23.268Z,6.10
2019-04-10T06:34:55.455Z,6.10
2019-04-10T06:37:28.329Z,6.20
2019-04-10T06:40:11.032Z,6.30
2019-04-10T06:42:46.455Z,6.30
2019-04-10T06:45:09.491Z,6.60
2019-04-10T06:47:40.870Z,6.90
2019-04-10T06:50:12.921Z,6.90
2019-04-10T06:52:45.073Z,7.00
2019-04-10T06:55:16.801Z,7.10
2019-04-10T06:57:54.443Z,6.90
2019-04-10T07:00:21.544Z,7.00
2019-04-10T07:02:52.769Z,7.00
2019-04-10T07:05:36.624Z,7.00
2019-04-10T07:08:09.981Z,6.80
2019-04-10T07:10:43.784Z,6.70
2019-04-10T07:13:07.734Z,6.80
2019-04-10T07:15:42.199Z,6.80
2019-04-10T07:18:15.290Z,6.80
2019-04-10T07:20:46.141Z,7.10
2019-04-10T07:23:24.070Z,7.20
2019-04-10T07:25:52.697Z,7.30
2019-04-10T07:28:23.951Z,7.50
2019-04-10T07:31:00.227Z,7.60
2019-04-10T07:33:28.898Z,7.80
2019-04-10T07:36:07.599Z,7.80
2019-04-10T07:38:37.095Z,7.80
2019-04-10T07:41:15.436Z,7.90
2019-04-10T07:43:42.845Z,8.10
2019-04-10T07:46:15.237Z,8.40
2019-04-10T07:48:47.508Z,8.40
2019-04-10T07:51:21.135Z,8.40
2019-04-10T07:53:53.244Z,8.50
2019-04-10T07:56:25.167Z,8.40
2019-04-10T07:58:57.327Z,8.40
2019-04-10T08:01:31.711Z,8.50
2019-04-10T08:04:02.807Z,8.70
2019-04-10T08:06:35.238Z,8.70
2019-04-10T08:09:10.444Z,9.00
2019-04-10T08:11:42.548Z,9.20
2019-04-10T08:14:14.751Z,9.40
2019-04-10T08:16:47.599Z,9.30
2019-04-10T08:19:20.756Z,9.20
2019-04-10T08:21:52.760Z,9.30
2019-04-10T08:24:24.283Z,9.30
2019-04-10T08:26:55.325Z,9.40
2019-04-10T08:29:27.035Z,9.40
2019-04-10T08:31:59.995Z,9.20
2019-04-10T08:34:32.078Z,9.20
2019-04-10T08:37:04.048Z,9.40
2019-04-10T08:39:41.189Z,9.40
2019-04-10T08:42:10.558Z,9.70
2019-04-10T08:44:42.487Z,10.20
2019-04-10T08:47:15.233Z,10.40
2019-04-10T08:49:47.422Z,10.60
2019-04-10T08:52:19.938Z,10.50
2019-04-10T08:54:51.327Z,10.70
2019-04-10T08:57:23.592Z,10.50
2019-04-10T08:59:56.174Z,10.60
2019-04-10T09:02:28.295Z,10.30
2019-04-10T09:05:01.492Z,10.30
2019-04-10T09:07:33.278Z,10.60
2019-04-10T09:10:05.966Z,10.50
2019-04-10T09:12:38.947Z,10.60
2019-04-10T09:15:11.871Z,10.00
2019-04-10T09:17:47.147Z,10.10
2019-04-10T09:20:19.389Z,10.30
2019-04-10T09:23:14.509Z,10.40
2019-04-10T09:25:23.273Z,10.60
2019-04-10T09:27:55.006Z,10.50
2019-04-10T09:30:26.942Z,10.60
2019-04-10T09:32:59.189Z,10.60
2019-04-10T09:35:32.933Z,10.60
2019-04-10T09:38:04.626Z,10.60
2019-04-10T09:40:36.374Z,10.50
2019-04-10T09:43:09.230Z,11.00
2019-04-10T09:45:41.687Z,11.00
2019-04-10T09:48:13.434Z,11.20
2019-04-10T09:50:45.920Z,11.20
2019-04-10T09:53:19.094Z,11.00
2019-04-10T09:55:52.344Z,10.70
2019-04-10T09:58:24.044Z,10.70
2019-04-10T10:00:56.539Z,10.50
2019-04-10T10:03:32.416Z,10.60
2019-04-10T10:06:05.388Z,10.60
2019-04-10T10:08:36.932Z,10.80
2019-04-10T10:11:09.500Z,10.90
2019-04-10T10:13:41.633Z,10.60
2019-04-10T10:16:12.952Z,11.00
2019-04-10T10:18:45.742Z,10.90
2019-04-10T10:21:18.705Z,10.90
2019-04-10T10:23:49.897Z,11.10
2019-04-10T10:26:21.534Z,11.40
2019-04-10T10:28:54.492Z,11.40
2019-04-10T10:31:26.770Z,11.20
2019-04-10T10:34:00.091Z,11.30
2019-04-10T10:36:39.146Z,11.70
2019-04-10T10:39:12.720Z,11.90
2019-04-10T10:41:40.543Z,12.00
2019-04-10T10:44:13.081Z,12.00
2019-04-10T10:46:45.445Z,11.90
2019-04-10T10:49:16.187Z,11.80
2019-04-10T10:51:47.431Z,12.00
2019-04-10T10:54:19.072Z,11.80
2019-04-10T10:56:50.927Z,11.70
2019-04-10T10:59:22.150Z,11.40
2019-04-10T11:01:55.973Z,11.30
2019-04-10T11:04:27.793Z,11.40
2019-04-10T11:07:00.955Z,11.20
2019-04-10T11:09:32.597Z,10.80
2019-04-10T11:12:06.690Z,10.70
2019-04-10T11:14:39.514Z,11.00
2019-04-10T11:17:11.936Z,11.10
2019-04-10T11:19:45.552Z,10.90
2019-04-10T11:22:21.964Z,11.00
2019-04-10T11:24:51.277Z,11.00
2019-04-10T11:27:23.871Z,11.20
2019-04-10T11:29:57.614Z,10.90
2019-04-10T11:32:28.949Z,10.50
2019-04-10T11:35:03.260Z,10.50
2019-04-10T11:37:43.512Z,10.80
2019-04-10T11:40:12.466Z,10.90
2019-04-10T11:42:44.740Z,10.90
2019-04-10T11:45:19.025Z,10.90
2019-04-10T11:47:51.402Z,11.20
2019-04-10T11:50:25.495Z,11.30
2019-04-10T11:52:59.725Z,11.10
2019-04-10T11:55:35.407Z,11.20
2019-04-10T11:58:05.534Z,11.40
2019-04-10T12:00:50.714Z,11.60
2019-04-10T12:03:18.128Z,11.80
2019-04-10T12:05:51.140Z,11.40
2019-04-10T12:08:45.252Z,11.60
2019-04-10T12:13:30.325Z,11.30
2019-04-10T12:16:03.010Z,11.50
2019-04-10T12:18:35.093Z,11.60
2019-04-10T12:21:09.483Z,11.80
2019-04-10T12:23:40.958Z,11.30
2019-04-10T12:26:12.190Z,11.60
2019-04-10T12:28:44.410Z,11.50
2019-04-10T12:31:15.935Z,11.80
2019-04-10T12:33:47.549Z,11.70
2019-04-10T12:36:18.657Z,11.70
2019-04-10T12:38:49.915Z,11.60
2019-04-10T12:41:21.844Z,11.70
2019-04-10T12:43:53.480Z,11.80
2019-04-10T12:46:24.975Z,11.60
2019-04-10T12:48:56.735Z,11.60
2019-04-10T12:51:28.329Z,11.80
2019-04-10T12:54:02.790Z,11.90
2019-04-10T12:56:34.621Z,12.10
2019-04-10T12:59:06.890Z,12.40
2019-04-10T13:01:39.293Z,12.60
2019-04-10T13:04:11.742Z,12.30
2019-04-10T13:06:42.867Z,12.30
2019-04-10T13:09:14.494Z,12.60
2019-04-10T13:11:46.810Z,12.60
2019-04-10T13:14:18.822Z,12.10
2019-04-10T13:16:50.131Z,11.60
2019-04-10T13:19:22.052Z,11.60
2019-04-10T13:21:53.686Z,11.80
2019-04-10T13:24:25.679Z,12.30
2019-04-10T13:26:58.500Z,12.30
2019-04-10T13:29:32.253Z,12.40
2019-04-10T13:32:03.677Z,12.70
2019-04-10T13:34:35.670Z,12.30
2019-04-10T13:37:08.322Z,12.00
2019-04-10T13:39:41.353Z,12.00
2019-04-10T13:42:14.774Z,11.70
2019-04-10T13:44:46.729Z,11.70
2019-04-10T13:47:17.978Z,11.70
2019-04-10T13:49:48.967Z,11.60
2019-04-10T13:52:20.507Z,11.40
2019-04-10T13:54:52.629Z,11.40
2019-04-10T13:57:24.685Z,11.20
2019-04-10T13:59:55.635Z,11.30
2019-04-10T14:02:39.429Z,11.50
2019-04-10T14:05:15.591Z,11.40
2019-04-10T14:07:47.679Z,11.20
2019-04-10T14:10:20.839Z,11.20
2019-04-10T14:12:53.533Z,11.10
2019-04-10T14:15:27.128Z,11.30
2019-04-10T14:17:59.799Z,10.90
2019-04-10T14:20:31.707Z,10.90
2019-04-10T14:23:31.309Z,10.90
2019-04-10T14:26:22.684Z,10.80
2019-04-10T14:28:53.774Z,10.50
2019-04-10T14:31:32.194Z,10.40
2019-04-10T14:34:05.006Z,10.40
2019-04-10T14:36:38.170Z,10.40
2019-04-10T14:39:18.310Z,10.40
2019-04-10T14:41:47.477Z,10.50
2019-04-10T14:44:20.906Z,10.50
2019-04-10T14:46:52.214Z,10.40
2019-04-10T14:49:23.683Z,10.20
2019-04-10T14:51:56.728Z,10.30
2019-04-10T14:54:28.727Z,10.20
2019-04-10T14:57:00.842Z,10.40
2019-04-10T14:59:33.726Z,10.60
2019-04-10T15:02:07.069Z,10.60
2019-04-10T15:04:39.381Z,10.80
2019-04-10T15:07:12.277Z,10.80
2019-04-10T15:09:44.770Z,10.70
2019-04-10T15:12:16.432Z,10.60
2019-04-10T15:14:48.194Z,10.50
2019-04-10T15:17:21.033Z,10.60
2019-04-10T15:19:53.937Z,10.60
2019-04-10T15:22:25.514Z,10.70
2019-04-10T15:24:57.875Z,10.60
2019-04-10T15:27:29.409Z,10.30
2019-04-10T15:30:02.931Z,10.10
2019-04-10T15:32:34.540Z,10.30
2019-04-10T15:35:06.401Z,10.10
2019-04-10T15:37:39.538Z,10.20
2019-04-10T15:40:19.987Z,10.30
2019-04-10T15:42:46.687Z,10.20
2019-04-10T15:45:19.624Z,10.10
2019-04-10T15:47:56.827Z,10.20
2019-04-10T15:50:26.474Z,10.20
2019-04-10T15:52:58.188Z,10.10
2019-04-10T15:55:30.294Z,9.90
2019-04-10T15:58:02.853Z,9.80
2019-04-10T16:00:35.789Z,9.70
2019-04-10T16:03:09.093Z,9.70
2019-04-10T16:05:41.830Z,9.60
2019-04-10T16:08:16.277Z,9.70
2019-04-10T16:11:06.288Z,9.80
2019-04-10T16:13:41.396Z,9.80
2019-04-10T16:16:52.812Z,9.60
2019-04-10T16:19:43.021Z,9.50
2019-04-10T16:22:40.455Z,9.30
2019-04-10T16:25:29.793Z,9.20
2019-04-10T16:28:04.160Z,9.20
2019-04-10T16:30:37.074Z,9.20
2019-04-10T16:33:09.647Z,9.20
2019-04-10T16:35:44.040Z,9.30
2019-04-10T16:38:16.749Z,9.30
2019-04-10T16:40:49.164Z,9.40
2019-04-10T16:43:22.332Z,9.30
2019-04-10T16:45:55.295Z,9.40
2019-04-10T16:48:28.223Z,9.40
2019-04-10T16:51:03.642Z,9.20
2019-04-10T16:53:36.283Z,9.20
2019-04-10T16:56:09.520Z,9.10
2019-04-10T16:58:42.827Z,9.10
2019-04-10T17:01:16.028Z,9.00
2019-04-10T17:03:49.666Z,9.00
2019-04-10T17:06:22.589Z,8.90
2019-04-10T17:08:56.767Z,8.90
2019-04-10T17:11:30.766Z,8.90
2019-04-10T17:14:04.890Z,9.00
2019-04-10T17:16:37.759Z,9.00
2019-04-10T17:19:11.767Z,8.90
2019-04-10T17:21:46.634Z,8.60
2019-04-10T17:24:19.006Z,8.70
2019-04-10T17:26:51.964Z,8.70
2019-04-10T17:29:25.141Z,8.90
2019-04-10T17:31:59.194Z,8.90
2019-04-10T17:34:32.555Z,8.90
2019-04-10T17:37:06.046Z,8.90
2019-04-10T17:39:37.803Z,8.80
2019-04-10T17:42:10.401Z,8.90
2019-04-10T17:44:43.628Z,8.80
2019-04-10T17:47:16.620Z,8.80
2019-04-10T17:49:51.755Z,8.70
2019-04-10T17:52:24.984Z,8.70
2019-04-10T17:54:58.799Z,8.80
2019-04-10T17:57:38.386Z,8.70
2019-04-10T18:00:07.004Z,8.70
2019-04-10T18:02:39.309Z,8.70
2019-04-10T18:05:12.628Z,8.60
2019-04-10T18:07:46.057Z,8.60
2019-04-10T18:10:18.568Z,8.70
2019-04-10T18:12:54.692Z,8.70
2019-04-10T18:15:30.286Z,8.60
2019-04-10T18:18:03.488Z,8.60
2019-04-10T18:20:37.537Z,8.60
2019-04-10T18:23:11.386Z,8.60
2019-04-10T18:25:46.869Z,8.70
2019-04-10T18:28:19.532Z,8.50
2019-04-10T18:30:52.305Z,8.40
2019-04-10T18:33:25.225Z,8.50
2019-04-10T18:35:57.520Z,8.50
2019-04-10T18:38:30.004Z,8.40
2019-04-10T18:41:05.746Z,8.50
2019-04-10T18:43:36.141Z,8.60
2019-04-10T18:46:13.463Z,8.50
2019-04-10T18:48:46.660Z,8.50
2019-04-10T18:51:18.789Z,8.50
2019-04-10T18:53:51.299Z,8.40
2019-04-10T18:56:25.079Z,8.40
2019-04-10T18:59:16.403Z,8.30
2019-04-10T19:02:05.445Z,8.30
2019-04-10T19:04:43.375Z,8.40
2019-04-10T19:07:17.750Z,8.40
2019-04-10T19:09:50.711Z,8.50
2019-04-10T19:12:26.392Z,8.50
2019-04-10T19:14:59.304Z,8.40
2019-04-10T19:17:33.185Z,8.40
2019-04-10T19:20:07.703Z,8.30
2019-04-10T19:22:40.617Z,8.30
2019-04-10T19:25:14.493Z,8.30
2019-04-10T19:27:46.999Z,8.40
2019-04-10T19:30:45.554Z,8.20
2019-04-10T19:33:18.484Z,8.10
2019-04-10T19:35:51.745Z,8.10
2019-04-10T19:38:25.270Z,8.10
2019-04-10T19:40:58.856Z,8.10
2019-04-10T19:43:33.263Z,7.90
2019-04-10T19:46:06.787Z,7.70
2019-04-10T19:48:39.463Z,7.80
2019-04-10T19:51:12.026Z,7.90
2019-04-10T19:53:43.975Z,7.80
2019-04-10T19:56:16.326Z,7.80
2019-04-10T19:58:50.272Z,7.90
2019-04-10T20:01:26.558Z,7.70
2019-04-10T20:03:57.221Z,7.40
2019-04-10T20:06:30.123Z,7.40
2019-04-10T20:09:02.588Z,7.30
2019-04-10T20:11:40.365Z,7.30
2019-04-10T20:14:08.383Z,7.10
2019-04-10T20:16:41.618Z,7.10
2019-04-10T20:19:13.500Z,7.20
2019-04-10T20:21:46.646Z,7.20
2019-04-10T20:24:18.888Z,7.10
2019-04-10T20:26:51.796Z,7.00
2019-04-10T20:29:24.558Z,6.80
2019-04-10T20:31:58.523Z,6.70
2019-04-10T20:34:33.680Z,6.70
2019-04-10T20:37:08.454Z,6.60
2019-04-10T20:39:41.152Z,6.70
2019-04-10T20:42:16.703Z,6.70
2019-04-10T20:44:53.303Z,6.60
2019-04-10T20:47:26.714Z,6.30
2019-04-10T20:50:06.521Z,6.30
2019-04-10T20:52:40.883Z,6.40
2019-04-10T20:55:13.263Z,6.40
2019-04-10T20:57:46.004Z,6.30
2019-04-10T21:00:24.398Z,6.20
2019-04-10T21:02:56.358Z,6.20
2019-04-10T21:05:28.294Z,6.20
2019-04-10T21:08:02.121Z,6.20
2019-04-10T21:10:33.768Z,6.20
2019-04-10T21:13:08.471Z,6.20
2019-04-10T21:15:40.105Z,6.20
2019-04-10T21:18:11.447Z,6.20
2019-04-10T21:20:43.262Z,6.20
2019-04-10T21:23:15.120Z,6.20
2019-04-10T21:25:46.106Z,6.10
2019-04-10T21:28:18.375Z,6.10
2019-04-10T21:31:11.810Z,6.10
2019-04-10T21:34:01.993Z,6.10
2019-04-10T21:36:34.995Z,5.90
2019-04-10T21:39:09.491Z,6.00
2019-04-10T21:41:41.713Z,6.10
2019-04-10T21:44:13.093Z,6.00
2019-04-10T21:46:44.731Z,5.90
2019-04-10T21:49:15.910Z,6.00
2019-04-10T21:51:47.982Z,6.00
2019-04-10T21:54:20.673Z,6.00
2019-04-10T21:56:53.457Z,5.90
2019-04-10T21:59:26.775Z,5.90
2019-04-10T22:01:59.418Z,5.80
2019-04-10T22:04:30.896Z,5.90
2019-04-10T22:07:23.896Z,6.00
2019-04-10T22:10:05.556Z,6.00
2019-04-10T22:12:43.572Z,5.90
2019-04-10T22:15:30.884Z,5.80
2019-04-10T22:18:03.688Z,5.80
2019-04-10T22:20:36.033Z,5.80
2019-04-10T22:23:09.707Z,5.60
2019-04-10T22:25:41.608Z,5.60
2019-04-10T22:28:13.224Z,5.60
2019-04-10T22:30:44.076Z,5.50
2019-04-10T22:33:16.098Z,5.60
2019-04-10T22:35:48.372Z,5.70
2019-04-10T22:38:22.098Z,5.80
2019-04-10T22:40:53.941Z,5.80
2019-04-10T22:43:26.031Z,5.80
2019-04-10T22:45:57.508Z,5.80
2019-04-10T22:48:28.772Z,5.70
2019-04-10T22:51:01.211Z,5.50
2019-04-10T22:53:33.613Z,5.50
2019-04-10T22:56:06.840Z,5.70
2019-04-10T22:58:39.253Z,5.80
2019-04-10T23:01:13.126Z,5.70
2019-04-10T23:03:45.328Z,5.80
2019-04-10T23:06:17.416Z,5.80
2019-04-10T23:08:49.637Z,5.70
2019-04-10T23:11:30.440Z,5.60
2019-04-10T23:13:54.245Z,5.60
2019-04-10T23:16:26.156Z,5.60
2019-04-10T23:18:58.465Z,5.70
2019-04-10T23:21:30.424Z,5.70
2019-04-10T23:24:03.390Z,5.50
2019-04-10T23:26:35.481Z,5.40
2019-04-10T23:29:06.610Z,5.40
2019-04-10T23:31:38.110Z,5.50
2019-04-10T23:34:10.710Z,5.30
2019-04-10T23:36:44.437Z,5.20
2019-04-10T23:39:16.365Z,5.20
2019-04-10T23:41:50.567Z,5.20
2019-04-10T23:44:20.744Z,5.30
2019-04-10T23:46:53.545Z,5.30
2019-04-10T23:49:25.618Z,5.40
2019-04-10T23:51:57.641Z,5.50
2019-04-10T23:54:29.145Z,5.60
2019-04-10T23:57:01.068Z,5.60
2019-04-10T23:59:33.542Z,5.60
